Time;durP1;ratioP1;P1;durP2;ratioP2;P2;SDS_P1;SDS_P2;PMS_P1;PMS_P2;Temp;Humidity;BMP_temperature;BMP_pressure;BME280_temperature;BME280_humidity;BME280_pressure;Samples;Min_cycle;Max_cycle;Signal;HPM_P1;HPM_P2
2022/06/10 00:01:29;;;;;;;8.07;2.50;;;;;;;10.46;100.00;101954.69;10292654;28;20046;-85
2022/06/10 00:06:30;;;;;;;9.02;2.85;;;;;;;10.41;100.00;101954.53;10293180;28;20038;-85
2022/06/10 00:11:30;;;;;;;6.57;2.25;;;;;;;10.38;100.00;101961.34;10256988;28;20035;-85
2022/06/10 00:16:31;;;;;;;9.32;2.58;;;;;;;10.36;100.00;101962.63;10256687;28;20073;-85
2022/06/10 00:21:31;;;;;;;7.95;2.85;;;;;;;10.33;100.00;101963.91;10277996;28;20035;-82
2022/06/10 00:26:32;;;;;;;9.70;2.70;;;;;;;10.29;100.00;101960.78;10296288;28;20047;-83
2022/06/10 00:31:32;;;;;;;8.63;2.13;;;;;;;10.26;100.00;101958.44;10294178;28;20047;-85
2022/06/10 00:36:32;;;;;;;6.55;2.40;;;;;;;10.24;100.00;101948.72;10282155;28;20043;-86
2022/06/10 00:41:33;;;;;;;7.60;3.20;;;;;;;10.13;100.00;101953.06;10297680;28;20058;-85
2022/06/10 00:46:34;;;;;;;9.45;3.08;;;;;;;10.07;100.00;101965.81;10301843;28;20049;-85
2022/06/10 00:51:37;;;;;;;9.60;2.70;;;;;;;10.02;100.00;101965.63;10284101;28;20039;-85
2022/06/10 00:56:38;;;;;;;9.18;3.42;;;;;;;9.83;100.00;101936.38;10299309;28;20869;-85
2022/06/10 01:01:38;;;;;;;11.48;3.38;;;;;;;9.93;100.00;101966.13;10283708;28;20058;-85
2022/06/10 01:06:39;;;;;;;10.85;3.50;;;;;;;9.85;100.00;101957.06;10300082;28;20047;-84
2022/06/10 01:11:42;;;;;;;10.88;3.38;;;;;;;9.84;100.00;101957.31;10298998;28;20058;-85
2022/06/10 01:16:53;;;;;;;8.63;3.97;;;;;;;9.83;100.00;101956.47;10298151;28;20043;-85
2022/06/10 01:22:08;;;;;;;14.98;3.70;;;;;;;9.78;100.00;101959.06;10267333;28;20039;-82
2022/06/10 01:27:49;;;;;;;11.02;4.38;;;;;;;9.77;100.00;101957.34;10303618;28;20046;-84
2022/06/10 01:33:27;;;;;;;8.88;3.78;;;;;;;9.76;100.00;101958.44;10289078;28;20117;-84
2022/06/10 01:38:42;;;;;;;7.07;3.42;;;;;;;9.70;100.00;101954.66;10300800;28;20043;-83
2022/06/10 01:43:59;;;;;;;12.68;4.15;;;;;;;9.74;100.00;101954.22;10282483;28;20529;-85
2022/06/10 01:49:17;;;;;;;12.82;5.97;;;;;;;9.68;100.00;101951.28;10297057;28;20070;-84
2022/06/10 01:54:32;;;;;;;9.40;4.18;;;;;;;9.65;100.00;101946.25;10297338;28;20538;-84
2022/06/10 01:59:46;;;;;;;8.80;4.40;;;;;;;9.60;100.00;101947.97;10282963;28;20055;-84
2022/06/10 02:04:55;;;;;;;10.65;4.32;;;;;;;9.22;100.00;101899.34;10267311;28;20458;-84
2022/06/10 02:10:22;;;;;;;8.98;4.65;;;;;;;9.54;100.00;101966.19;10280105;28;20043;-85
2022/06/10 02:15:26;;;;;;;8.38;4.32;;;;;;;9.50;100.00;101965.78;10297253;28;20063;-85
2022/06/10 02:20:27;;;;;;;9.80;5.13;;;;;;;9.44;100.00;101961.16;10280482;28;20039;-84
2022/06/10 02:25:50;;;;;;;9.30;5.10;;;;;;;9.32;100.00;101949.16;10280643;28;20038;-84
2022/06/10 02:30:57;;;;;;;10.68;5.43;;;;;;;9.32;100.00;101968.41;10297100;28;20054;-83
2022/06/10 02:36:06;;;;;;;12.02;6.20;;;;;;;9.30;100.00;101970.53;10279265;28;20039;-85
2022/06/10 02:41:12;;;;;;;14.95;5.43;;;;;;;9.29;100.00;101974.34;10294792;28;20047;-83
2022/06/10 02:46:23;;;;;;;13.40;6.43;;;;;;;9.26;100.00;101964.66;10280106;28;20102;-84
2022/06/10 02:51:24;;;;;;;9.20;6.13;;;;;;;9.16;100.00;101956.03;10281439;28;20045;-85
2022/06/10 02:56:26;;;;;;;14.82;5.95;;;;;;;9.24;100.00;101980.50;10264097;28;20054;-83
2022/06/10 03:01:34;;;;;;;12.43;5.97;;;;;;;9.24;100.00;101990.63;10294058;28;20043;-84
2022/06/10 03:06:34;;;;;;;14.43;5.82;;;;;;;9.22;100.00;101981.75;10279030;28;20035;-84
2022/06/10 03:11:36;;;;;;;17.58;6.85;;;;;;;9.21;100.00;101989.19;10295786;28;20074;-83
2022/06/10 03:16:58;;;;;;;15.80;5.35;;;;;;;9.22;100.00;101992.75;10278929;28;20054;-84
2022/06/10 03:22:43;;;;;;;13.07;5.60;;;;;;;9.18;100.00;101995.13;10296066;28;20046;-83
2022/06/10 03:27:47;;;;;;;16.75;6.63;;;;;;;9.19;100.00;101988.56;10250618;28;20099;-84
2022/06/10 03:32:57;;;;;;;14.35;6.28;;;;;;;9.11;100.00;101971.47;10245843;28;20039;-84
2022/06/10 03:37:58;;;;;;;16.55;6.30;;;;;;;9.21;100.00;101988.34;10293437;28;20137;-85
2022/06/10 03:43:00;;;;;;;15.85;6.13;;;;;;;9.23;100.00;101986.22;10278120;28;20539;-84
2022/06/10 03:48:00;;;;;;;12.13;5.80;;;;;;;9.23;100.00;101980.72;10294970;28;20099;-84
2022/06/10 03:53:01;;;;;;;19.55;6.43;;;;;;;9.23;100.00;101975.22;10293114;28;20046;-85
2022/06/10 03:58:01;;;;;;;9.80;5.90;;;;;;;9.34;100.00;101988.25;10277528;28;20050;-85
2022/06/10 04:03:02;;;;;;;15.88;7.15;;;;;;;9.31;100.00;101977.72;10293237;28;20054;-85
2022/06/10 04:08:02;;;;;;;15.25;5.70;;;;;;;9.47;100.00;101987.38;10272153;28;20046;-84
2022/06/10 04:13:03;;;;;;;10.88;5.65;;;;;;;9.49;100.00;101985.25;10262749;28;20039;-84
2022/06/10 04:18:04;;;;;;;9.68;6.00;;;;;;;9.54;100.00;101992.84;10302665;28;20054;-85
2022/06/10 04:23:04;;;;;;;13.68;5.75;;;;;;;9.59;100.00;101995.75;10301797;28;20034;-85
2022/06/10 04:28:05;;;;;;;10.43;5.15;;;;;;;9.67;100.00;101992.75;10299710;28;20719;-84
2022/06/10 04:33:06;;;;;;;14.15;6.53;;;;;;;9.72;100.00;102001.19;10284619;28;20035;-84
2022/06/10 04:38:07;;;;;;;16.27;5.82;;;;;;;9.83;100.00;102005.13;10302544;28;20053;-84
2022/06/10 04:43:08;;;;;;;22.13;8.18;;;;;;;9.93;100.00;102008.25;10300437;28;20043;-85
2022/06/10 04:48:11;;;;;;;13.32;6.05;;;;;;;9.69;100.00;101941.13;10300980;28;20039;-85
2022/06/10 04:53:11;;;;;;;17.40;6.68;;;;;;;10.11;100.00;102001.97;10299509;28;20118;-85
2022/06/10 04:58:12;;;;;;;18.02;6.38;;;;;;;10.27;100.00;102003.31;10299427;28;20039;-84
2022/06/10 05:03:13;;;;;;;12.82;5.70;;;;;;;10.43;100.00;101996.44;10298731;28;20110;-85
2022/06/10 05:08:14;;;;;;;16.67;6.75;;;;;;;9.87;100.00;101879.84;10300506;28;20038;-85
2022/06/10 05:13:20;;;;;;;16.02;6.50;;;;;;;10.78;100.00;101998.63;10301621;28;20034;-84
2022/06/10 05:18:22;;;;;;;9.03;5.30;;;;;;;11.01;100.00;101996.03;10282474;28;20035;-85
2022/06/10 05:23:24;;;;;;;16.15;7.07;;;;;;;11.21;100.00;101994.97;10296778;28;20035;-84
2022/06/10 05:28:24;;;;;;;14.60;6.18;;;;;;;11.40;100.00;101995.78;10289703;28;20057;-84
2022/06/10 05:34:44;;;;;;;11.30;5.22;;;;;;;11.61;100.00;101991.66;10279888;28;20055;-86
2022/06/10 05:38:45;;;;;;;11.32;6.13;;;;;;;11.81;100.00;101969.31;10279746;28;20039;-84
2022/06/10 05:43:46;;;;;;;9.35;5.63;;;;;;;12.45;100.00;101991.66;10277856;28;20042;-82
2022/06/10 05:48:47;;;;;;;15.00;5.53;;;;;;;13.07;100.00;101978.13;10279534;28;20039;-84
2022/06/10 05:53:47;;;;;;;15.85;4.82;;;;;;;13.81;100.00;101988.47;10277287;28;20039;-83
2022/06/10 05:58:48;;;;;;;10.63;3.88;;;;;;;14.39;100.00;101985.56;10277375;28;20065;-84
2022/06/10 06:03:48;;;;;;;15.82;4.53;;;;;;;14.87;100.00;101975.75;10298999;28;20463;-85
2022/06/10 06:08:49;;;;;;;9.82;3.80;;;;;;;15.34;100.00;101986.34;10298607;28;20050;-85
2022/06/10 06:13:49;;;;;;;12.95;3.83;;;;;;;15.56;100.00;101983.53;10277299;28;20480;-85
2022/06/10 06:18:51;;;;;;;15.05;4.88;;;;;;;15.29;100.00;101897.50;10276331;28;20035;-85
2022/06/10 06:23:51;;;;;;;10.20;3.10;;;;;;;16.21;100.00;101984.47;10276658;28;20118;-85
2022/06/10 06:28:52;;;;;;;7.72;3.08;;;;;;;16.06;100.00;101978.75;10275860;28;20507;-82
2022/06/10 06:33:53;;;;;;;12.15;3.75;;;;;;;16.13;100.00;101982.19;10275784;28;20082;-85
2022/06/10 06:38:54;;;;;;;9.40;3.08;;;;;;;16.21;100.00;101987.25;10244160;28;20102;-84
2022/06/10 06:43:54;;;;;;;12.00;3.60;;;;;;;16.03;100.00;101971.81;10261260;28;20043;-84
2022/06/10 06:48:54;;;;;;;13.13;3.67;;;;;;;15.98;100.00;101987.56;10274747;28;20042;-85
2022/06/10 06:53:55;;;;;;;12.30;3.50;;;;;;;16.04;100.00;101980.97;10273781;28;20036;-83
2022/06/10 06:58:56;;;;;;;11.02;3.22;;;;;;;16.20;100.00;102001.41;10277222;28;20031;-83
2022/06/10 07:03:57;;;;;;;9.57;3.33;;;;;;;16.37;100.00;102006.81;10273717;28;20066;-85
2022/06/10 07:08:57;;;;;;;8.63;3.30;;;;;;;16.49;100.00;102004.69;10267552;28;20051;-84
2022/06/10 07:13:57;;;;;;;14.80;4.15;;;;;;;16.49;100.00;102005.50;10266754;28;20073;-84
2022/06/10 07:18:58;;;;;;;12.88;3.13;;;;;;;16.52;100.00;102027.22;10275316;28;20035;-84
2022/06/10 07:23:59;;;;;;;7.80;3.05;;;;;;;16.61;100.00;102029.53;10294130;28;20041;-83
2022/06/10 07:29:00;;;;;;;9.35;3.80;;;;;;;16.67;100.00;102034.84;10296697;28;20059;-84
2022/06/10 07:34:00;;;;;;;14.50;3.13;;;;;;;16.91;100.00;102034.50;10295487;28;20035;-85
2022/06/10 07:39:01;;;;;;;11.40;3.95;;;;;;;16.90;100.00;102027.25;10296654;28;20035;-84
2022/06/10 07:44:01;;;;;;;13.07;3.95;;;;;;;16.87;100.00;102030.56;10295997;28;20035;-83
2022/06/10 07:49:01;;;;;;;10.70;4.00;;;;;;;16.99;100.00;102035.91;10295233;28;20031;-84
2022/06/10 07:54:02;;;;;;;13.85;4.32;;;;;;;17.02;100.00;102027.88;10293362;28;20514;-84
2022/06/10 07:59:03;;;;;;;13.32;4.55;;;;;;;17.03;100.00;102035.13;10282713;28;20046;-85
2022/06/10 08:04:06;;;;;;;9.50;3.78;;;;;;;17.00;100.00;102027.28;10272918;28;20094;-84
2022/06/10 08:09:07;;;;;;;16.02;4.35;;;;;;;17.12;100.00;102035.44;10265049;28;20062;-85
2022/06/10 08:14:07;;;;;;;11.63;5.22;;;;;;;16.95;100.00;102052.31;10290262;28;20067;-84
2022/06/10 08:19:08;;;;;;;13.50;5.68;;;;;;;16.75;100.00;102039.91;10283507;28;20043;-85
2022/06/10 08:24:08;;;;;;;13.82;6.32;;;;;;;16.79;100.00;102040.22;10269240;28;20475;-84
2022/06/10 08:29:09;;;;;;;13.65;6.50;;;;;;;16.87;100.00;102034.19;10270856;28;20043;-84
2022/06/10 08:34:09;;;;;;;15.20;5.72;;;;;;;17.41;100.00;102041.41;10281676;28;20066;-85
2022/06/10 08:39:10;;;;;;;14.30;6.28;;;;;;;17.55;100.00;102034.22;10282079;28;20494;-84
2022/06/10 08:44:21;;;;;;;16.58;5.20;;;;;;;18.03;100.00;102045.25;10292282;28;20059;-84
2022/06/10 08:49:40;;;;;;;10.23;5.28;;;;;;;17.90;100.00;102041.06;10257510;28;20418;-85
2022/06/10 08:54:44;;;;;;;11.10;5.85;;;;;;;17.57;100.00;102044.25;10290370;28;20066;-84
2022/06/10 08:59:44;;;;;;;14.18;5.28;;;;;;;17.14;100.00;102049.91;10289776;28;20111;-84
2022/06/10 09:04:55;;;;;;;13.52;6.13;;;;;;;16.74;100.00;102021.56;10288402;28;20032;-84
2022/06/10 09:09:57;;;;;;;9.90;5.82;;;;;;;16.91;100.00;102034.50;10269538;28;20090;-85
2022/06/10 09:14:58;;;;;;;13.38;5.57;;;;;;;16.89;100.00;102031.16;10250279;28;20053;-85
2022/06/10 09:20:34;;;;;;;12.10;5.75;;;;;;;16.86;100.00;102043.63;10247351;28;20047;-84
2022/06/10 09:25:43;;;;;;;15.70;5.95;;;;;;;16.97;100.00;102038.97;10274499;28;20035;-84
2022/06/10 09:31:03;;;;;;;13.80;5.57;;;;;;;17.14;100.00;102034.06;10262510;28;21146;-83
2022/06/10 09:36:16;;;;;;;9.27;5.57;;;;;;;17.44;100.00;102032.50;10265874;28;20047;-85
2022/06/10 09:41:35;;;;;;;12.57;5.55;;;;;;;17.64;100.00;102030.91;10279506;28;20039;-85
2022/06/10 09:46:50;;;;;;;17.45;5.65;;;;;;;17.69;100.00;102017.00;10280608;28;20069;-89
2022/06/10 09:51:59;;;;;;;11.27;5.03;;;;;;;17.54;100.00;102004.69;10271076;28;20510;-85
2022/06/10 09:57:05;;;;;;;14.82;5.28;;;;;;;17.97;100.00;102045.53;10300944;28;20035;-85
2022/06/10 10:02:13;;;;;;;14.57;5.38;;;;;;;18.06;100.00;102038.28;10296949;28;20031;-86
2022/06/10 10:07:23;;;;;;;20.08;6.47;;;;;;;17.71;100.00;102031.47;10288291;28;20043;-84
2022/06/10 10:12:48;;;;;;;16.13;5.57;;;;;;;17.36;100.00;102041.38;10276283;28;20074;-86
2022/06/10 10:18:07;;;;;;;12.45;5.85;;;;;;;17.30;100.00;102048.03;10277103;28;20081;-85
2022/06/10 10:23:15;;;;;;;16.35;4.60;;;;;;;17.44;100.00;102034.47;10277167;28;20041;-86
2022/06/10 10:28:33;;;;;;;12.57;5.13;;;;;;;17.55;100.00;102045.38;10229928;28;20162;-85
2022/06/10 10:33:34;;;;;;;11.82;4.78;;;;;;;17.75;100.00;102052.09;10273632;28;20122;-85
2022/06/10 10:38:40;;;;;;;12.35;4.95;;;;;;;18.20;100.00;102038.56;10259242;28;20060;-86
2022/06/10 10:43:40;;;;;;;10.85;4.47;;;;;;;18.81;100.00;102038.59;10275856;28;20039;-85
2022/06/10 10:48:45;;;;;;;14.90;4.63;;;;;;;19.03;100.00;102024.28;10244478;28;20030;-85
2022/06/10 10:53:48;;;;;;;10.55;4.03;;;;;;;19.65;100.00;102018.44;10275056;28;20051;-85
2022/06/10 10:58:48;;;;;;;9.55;3.95;;;;;;;20.27;100.00;102025.31;10259059;28;20070;-84
2022/06/10 11:03:53;;;;;;;8.55;3.58;;;;;;;20.27;100.00;102011.31;10274912;28;20102;-86
2022/06/10 11:09:02;;;;;;;10.43;3.83;;;;;;;19.85;100.00;102029.53;10256750;28;20045;-85
2022/06/10 11:14:19;;;;;;;9.35;4.32;;;;;;;19.13;100.00;102001.91;10280356;28;20062;-85
2022/06/10 11:19:25;;;;;;;11.00;3.92;;;;;;;19.36;100.00;102038.69;10295861;28;20039;-85
2022/06/10 11:24:31;;;;;;;11.55;3.83;;;;;;;19.26;100.00;102027.56;10294603;28;20039;-85
2022/06/10 11:29:31;;;;;;;11.90;3.90;;;;;;;19.78;100.00;102020.63;10279453;28;20078;-86
2022/06/10 11:34:36;;;;;;;10.63;3.85;;;;;;;20.66;100.00;102021.63;10272425;28;20070;-86
2022/06/10 11:39:37;;;;;;;10.05;3.50;;;;;;;21.10;100.00;102017.78;10295466;28;20035;-87
2022/06/10 11:44:42;;;;;;;8.63;2.88;;;;;;;22.02;100.00;102012.13;10255378;28;20062;-87
2022/06/10 11:50:19;;;;;;;12.82;3.63;;;;;;;22.33;100.00;101993.66;10277957;28;20090;-84
2022/06/10 11:55:22;;;;;;;10.17;3.53;;;;;;;22.01;100.00;102004.81;10293960;28;20042;-85
2022/06/10 12:00:36;;;;;;;10.57;2.80;;;;;;;22.49;100.00;101988.63;10266447;28;20043;-84
2022/06/10 12:05:51;;;;;;;7.75;2.50;;;;;;;22.58;100.00;101993.53;10276927;28;20173;-85
2022/06/10 12:10:56;;;;;;;7.88;2.97;;;;;;;22.48;100.00;101986.94;10290001;28;20043;-85
2022/06/10 12:15:57;;;;;;;9.23;2.08;;;;;;;22.33;100.00;101968.41;10292864;28;20081;-85
2022/06/10 12:21:04;;;;;;;11.23;3.10;;;;;;;22.95;100.00;101975.66;10273163;28;20078;-85
2022/06/10 12:26:16;;;;;;;8.82;2.72;;;;;;;23.65;100.00;101951.13;10282932;28;20047;-85
2022/06/10 12:31:35;;;;;;;12.30;2.70;;;;;;;23.05;100.00;101966.22;10263229;28;20059;-84
2022/06/10 12:36:51;;;;;;;7.35;2.33;;;;;;;22.38;100.00;101975.91;10279062;28;20050;-85
2022/06/10 12:41:56;;;;;;;8.63;2.33;;;;;;;22.24;100.00;101967.47;10272516;28;20046;-84
2022/06/10 12:47:02;;;;;;;17.40;2.47;;;;;;;22.36;100.00;101973.38;10318949;28;20450;-84
2022/06/10 12:52:21;;;;;;;10.73;2.83;;;;;;;22.94;100.00;101971.19;10304900;28;20067;-85
2022/06/10 12:57:21;;;;;;;8.65;2.17;;;;;;;23.40;100.00;101967.44;10300832;28;20286;-85
2022/06/10 13:02:43;;;;;;;14.30;2.58;;;;;;;23.27;100.00;101951.44;10299462;28;20057;-85
2022/06/10 13:07:43;;;;;;;8.15;2.47;;;;;;;23.42;100.00;101958.69;10297713;28;20049;-85
2022/06/10 13:12:43;;;;;;;7.63;3.10;;;;;;;24.26;97.63;101944.00;10274211;28;20058;-85
2022/06/10 13:18:21;;;;;;;10.30;2.83;;;;;;;24.56;97.11;101952.81;10243634;28;20034;-85
2022/06/10 13:23:25;;;;;;;9.30;3.15;;;;;;;24.34;94.47;101940.41;10263954;28;20039;-85
2022/06/10 13:28:27;;;;;;;6.45;2.42;;;;;;;23.70;95.69;101932.16;10298564;28;20043;-85
2022/06/10 13:33:28;;;;;;;10.77;2.10;;;;;;;23.30;97.67;101945.19;10296116;28;20039;-90
2022/06/10 13:38:34;;;;;;;10.55;3.33;;;;;;;22.69;99.79;101941.66;10280177;28;20039;-85
2022/06/10 13:43:34;;;;;;;5.32;2.53;;;;;;;22.06;100.00;101957.09;10282117;28;20046;-85
2022/06/10 13:48:35;;;;;;;12.00;4.20;;;;;;;21.62;100.00;101975.13;10267474;28;20027;-84
2022/06/10 13:53:38;;;;;;;10.25;2.88;;;;;;;21.82;100.00;101966.41;10286194;28;20047;-85
2022/06/10 13:58:45;;;;;;;8.52;3.08;;;;;;;21.93;100.00;101958.69;10267388;28;20043;-84
2022/06/10 14:03:51;;;;;;;9.45;3.63;;;;;;;21.84;100.00;101971.72;10277575;28;20035;-85
2022/06/10 14:09:19;;;;;;;9.00;2.83;;;;;;;21.39;100.00;101962.81;10277845;28;20047;-85
2022/06/10 14:14:20;;;;;;;10.63;3.38;;;;;;;21.07;100.00;101975.56;10276571;28;20113;-85
2022/06/10 14:19:21;;;;;;;9.13;3.00;;;;;;;21.07;100.00;101964.38;10260608;28;20062;-85
2022/06/10 14:24:29;;;;;;;9.98;2.65;;;;;;;21.61;100.00;101970.69;10279955;28;20505;-85
2022/06/10 14:29:44;;;;;;;9.65;2.58;;;;;;;21.99;100.00;101962.22;10296637;28;20403;-86
2022/06/10 14:34:45;;;;;;;13.25;2.92;;;;;;;21.47;100.00;101948.19;10279806;28;20476;-85
2022/06/10 14:40:22;;;;;;;7.85;2.90;;;;;;;21.14;100.00;101960.06;10280220;28;20047;-85
2022/06/10 14:45:31;;;;;;;6.57;2.50;;;;;;;21.21;100.00;101970.06;10297429;28;20038;-85
2022/06/10 14:50:33;;;;;;;7.85;2.90;;;;;;;21.13;100.00;101978.00;10295954;28;20106;-85
2022/06/10 14:55:34;;;;;;;7.68;3.10;;;;;;;20.87;100.00;101965.44;10294148;28;20050;-84
2022/06/10 15:00:35;;;;;;;4.80;2.72;;;;;;;20.54;100.00;101980.03;10294969;28;20035;-85
2022/06/10 15:10:54;;;;;;;9.65;3.47;;;;;;;20.19;100.00;101988.75;10288030;28;20070;-87
2022/06/10 15:15:55;;;;;;;9.88;2.85;;;;;;;20.16;100.00;101962.22;10286611;28;20047;-87
2022/06/10 15:20:55;;;;;;;10.63;2.20;;;;;;;21.05;100.00;101966.63;10227861;28;20047;-87
2022/06/10 15:25:56;;;;;;;6.78;2.50;;;;;;;24.19;98.49;101931.56;10273107;28;20039;-88
2022/06/10 15:30:57;;;;;;;9.63;2.40;;;;;;;26.23;85.79;101933.03;10277574;28;20103;-87
2022/06/10 15:41:22;;;;;;;5.00;1.60;;;;;;;27.81;76.90;101902.72;10293464;28;20038;-87
2022/06/10 15:46:27;;;;;;;13.23;2.60;;;;;;;27.32;74.65;101919.41;10293470;28;20034;-88
2022/06/10 15:51:45;;;;;;;6.40;2.00;;;;;;;26.92;73.96;101912.16;10294391;28;20066;-89
2022/06/10 16:02:17;;;;;;;6.57;1.58;;;;;;;27.74;65.48;101885.44;10253559;28;20099;-89
2022/06/10 16:07:18;;;;;;;5.93;1.60;;;;;;;27.61;66.21;101893.06;10273421;28;20045;-89
2022/06/10 16:17:44;;;;;;;4.30;1.80;;;;;;;27.53;65.28;101897.66;10290619;28;20046;-86
2022/06/10 16:22:46;;;;;;;6.22;2.25;;;;;;;27.00;66.94;101896.34;10272210;28;20323;-85
2022/06/10 16:27:46;;;;;;;4.57;1.50;;;;;;;26.92;68.33;101912.16;10271701;28;20075;-86
2022/06/10 16:32:47;;;;;;;8.48;3.00;;;;;;;26.16;68.40;101901.66;10258255;28;20074;-86
2022/06/10 16:37:47;;;;;;;4.38;1.45;;;;;;;25.07;70.71;101908.25;10275718;28;20049;-87
2022/06/10 16:42:51;;;;;;;6.40;1.58;;;;;;;24.56;73.85;101930.31;10251460;28;20085;-86
2022/06/10 16:47:51;;;;;;;6.03;1.67;;;;;;;24.13;76.44;101920.41;10279876;28;20082;-87
2022/06/10 16:52:52;;;;;;;3.00;1.92;;;;;;;23.25;77.98;101929.25;10244120;28;20059;-86
2022/06/10 16:57:54;;;;;;;6.30;2.10;;;;;;;23.11;80.98;101926.50;10297576;28;20483;-87
2022/06/10 17:02:59;;;;;;;7.03;2.47;;;;;;;23.03;81.86;101907.56;10246846;28;20070;-87
2022/06/10 17:08:00;;;;;;;7.77;2.70;;;;;;;22.79;82.71;101930.22;10282186;28;20062;-87
2022/06/10 17:13:05;;;;;;;7.75;2.63;;;;;;;22.71;83.80;101928.97;10266227;28;20042;-87
2022/06/10 17:18:15;;;;;;;8.60;2.28;;;;;;;22.47;83.87;101933.91;10298278;28;20039;-87
2022/06/10 17:23:17;;;;;;;6.68;2.47;;;;;;;22.26;86.22;101933.47;10313315;28;20100;-87
2022/06/10 17:28:19;;;;;;;5.75;1.90;;;;;;;21.97;88.37;101920.47;10284822;28;20035;-85
2022/06/10 17:33:24;;;;;;;6.88;2.30;;;;;;;21.92;89.74;101932.63;10272904;28;20054;-88
2022/06/10 17:38:27;;;;;;;7.13;2.22;;;;;;;21.75;92.86;101935.97;10272621;28;20035;-88
2022/06/10 17:43:35;;;;;;;8.10;2.65;;;;;;;21.38;94.77;101945.19;10286315;28;20062;-89
2022/06/10 17:48:35;;;;;;;6.63;2.65;;;;;;;20.96;96.91;101935.69;10288322;28;20463;-87
2022/06/10 17:53:36;;;;;;;9.15;2.83;;;;;;;20.85;98.83;101962.09;10301461;28;20078;-91
2022/06/10 17:58:39;;;;;;;9.55;2.30;;;;;;;20.59;100.00;101959.59;10238457;28;20042;-90
2022/06/10 18:03:39;;;;;;;10.00;2.20;;;;;;;20.35;100.00;101956.72;10284517;28;20047;-89
2022/06/10 18:08:39;;;;;;;8.38;2.63;;;;;;;20.11;100.00;101970.63;10269146;28;20093;-89
2022/06/10 18:19:14;;;;;;;7.93;2.90;;;;;;;19.67;100.00;101960.31;10271222;28;20039;-89
2022/06/10 18:24:23;;;;;;;6.88;3.47;;;;;;;19.68;100.00;101962.00;10275648;28;20043;-89
2022/06/10 18:29:26;;;;;;;8.13;2.53;;;;;;;19.85;100.00;101944.88;10262962;28;20055;-90
2022/06/10 18:34:27;;;;;;;10.25;2.83;;;;;;;19.94;100.00;101949.53;10287545;28;20085;-90
2022/06/10 18:39:28;;;;;;;7.15;2.85;;;;;;;19.95;100.00;101956.78;10278053;28;20089;-90
2022/06/10 18:44:28;;;;;;;9.15;2.70;;;;;;;19.80;100.00;101947.69;10302437;28;20038;-89
2022/06/10 18:49:32;;;;;;;6.28;2.45;;;;;;;19.65;100.00;101951.41;10267522;28;20078;-89
2022/06/10 18:54:35;;;;;;;5.43;2.38;;;;;;;19.50;100.00;101941.16;10291936;28;20806;-87
2022/06/10 18:59:36;;;;;;;8.55;2.88;;;;;;;19.45;100.00;101963.53;10274879;28;20086;-91
2022/06/10 19:04:38;;;;;;;6.20;2.10;;;;;;;19.26;100.00;101953.00;10290761;28;20051;-89
2022/06/10 19:09:39;;;;;;;7.85;2.97;;;;;;;19.20;100.00;101973.69;10282258;28;20039;-91
2022/06/10 19:14:41;;;;;;;5.82;2.45;;;;;;;19.06;100.00;101967.91;10259634;28;20042;-89
2022/06/10 19:19:45;;;;;;;9.48;2.95;;;;;;;18.97;100.00;101971.56;10257462;28;20094;-89
2022/06/10 19:24:45;;;;;;;7.97;3.60;;;;;;;18.94;100.00;101959.03;10280883;28;20046;-90
2022/06/10 19:29:46;;;;;;;7.10;3.17;;;;;;;18.89;100.00;101961.81;10295040;28;20042;-90
2022/06/10 19:34:52;;;;;;;7.68;2.97;;;;;;;18.71;100.00;101944.56;10286740;28;20043;-90
2022/06/10 19:39:54;;;;;;;8.87;2.60;;;;;;;18.76;100.00;101958.47;10241656;28;20035;-91
2022/06/10 19:44:54;;;;;;;7.93;2.85;;;;;;;18.74;100.00;101971.88;10296071;28;20043;-90
2022/06/10 19:49:58;;;;;;;6.65;2.90;;;;;;;18.70;100.00;101967.16;10284860;28;20055;-89
2022/06/10 19:55:00;;;;;;;6.18;2.80;;;;;;;18.67;100.00;101971.34;10267236;28;20077;-90
2022/06/10 20:00:01;;;;;;;8.68;3.33;;;;;;;18.53;100.00;101970.25;10288646;28;20034;-90
2022/06/10 20:05:02;;;;;;;8.75;3.58;;;;;;;18.47;100.00;101963.00;10266936;28;20455;-90
2022/06/10 20:10:06;;;;;;;8.77;3.45;;;;;;;18.44;100.00;101966.34;10287813;28;20054;-90
2022/06/10 20:15:07;;;;;;;9.50;4.25;;;;;;;18.47;100.00;101983.34;10271461;28;20039;-87
2022/06/10 20:20:28;;;;;;;10.57;3.60;;;;;;;18.44;100.00;101980.28;10267827;28;20094;-89
2022/06/10 20:25:38;;;;;;;10.65;4.45;;;;;;;18.17;100.00;101956.38;10279449;28;20035;-89
2022/06/10 20:30:40;;;;;;;9.27;3.95;;;;;;;18.23;100.00;101982.25;10297622;28;20043;-90
2022/06/10 20:35:42;;;;;;;7.80;3.70;;;;;;;18.10;100.00;101970.56;10284476;28;20121;-89
2022/06/10 20:40:43;;;;;;;8.20;3.25;;;;;;;18.12;100.00;101978.63;10290400;28;20117;-90
2022/06/10 20:45:46;;;;;;;7.65;3.60;;;;;;;18.08;100.00;101969.16;10267105;28;20089;-90
2022/06/10 20:50:47;;;;;;;13.02;4.40;;;;;;;17.88;100.00;101942.97;10281303;28;20425;-87
2022/06/10 20:55:47;;;;;;;7.80;3.70;;;;;;;17.99;100.00;101965.28;10254088;28;20039;-89
2022/06/10 21:00:48;;;;;;;5.05;3.17;;;;;;;17.90;100.00;101963.03;10302816;28;20039;-89
2022/06/10 21:11:10;;;;;;;9.27;3.40;;;;;;;17.77;100.00;101955.19;10282263;28;20047;-89
2022/06/10 21:16:16;;;;;;;7.93;3.00;;;;;;;17.70;100.00;101960.19;10270762;28;20035;-86
2022/06/10 21:21:21;;;;;;;10.07;3.47;;;;;;;17.62;100.00;101956.00;10275992;28;20506;-89
2022/06/10 21:26:27;;;;;;;8.48;3.30;;;;;;;17.53;100.00;101952.94;10306023;28;20031;-90
2022/06/10 21:31:36;;;;;;;9.20;3.75;;;;;;;17.52;100.00;101962.38;10302032;28;20039;-90
2022/06/10 21:36:39;;;;;;;8.75;3.10;;;;;;;17.50;100.00;101967.38;10299619;28;20125;-85
2022/06/10 21:41:44;;;;;;;8.45;4.25;;;;;;;17.42;100.00;101956.78;10299036;28;20055;-89
2022/06/10 21:46:49;;;;;;;10.48;4.78;;;;;;;17.28;100.00;101947.28;10295563;28;20043;-88
2022/06/10 21:51:50;;;;;;;8.63;4.82;;;;;;;17.26;100.00;101955.06;10279452;28;20095;-86
2022/06/10 21:56:51;;;;;;;13.70;4.82;;;;;;;17.19;100.00;101951.72;10276112;28;20035;-88
2022/06/10 22:01:52;;;;;;;10.07;5.40;;;;;;;17.08;100.00;101954.44;10290718;28;20023;-90
2022/06/10 22:06:55;;;;;;;8.60;4.88;;;;;;;16.98;100.00;101951.63;10291485;28;20039;-90
2022/06/10 22:11:57;;;;;;;10.80;5.53;;;;;;;16.96;100.00;101942.72;10292846;28;20046;-87
2022/06/10 22:16:59;;;;;;;9.82;5.20;;;;;;;16.83;100.00;101944.03;10286794;28;20035;-87
2022/06/10 22:22:12;;;;;;;9.77;5.90;;;;;;;16.79;100.00;101950.41;10289384;28;20042;-88
2022/06/10 22:27:12;;;;;;;8.50;5.75;;;;;;;16.66;100.00;101955.34;10274750;28;20124;-87
2022/06/10 22:32:14;;;;;;;9.30;6.28;;;;;;;16.57;100.00;101968.03;10317423;28;20038;-88
2022/06/10 22:37:18;;;;;;;13.68;6.13;;;;;;;16.21;100.00;101920.56;10317677;28;20042;-87
2022/06/10 22:42:20;;;;;;;9.75;6.20;;;;;;;16.44;100.00;101962.97;10269131;28;20039;-86
2022/06/10 22:47:23;;;;;;;10.45;6.57;;;;;;;16.38;100.00;101955.69;10292795;28;20045;-87
2022/06/10 22:52:31;;;;;;;12.10;6.65;;;;;;;16.30;100.00;101954.25;10274494;28;20054;-84
2022/06/10 22:57:34;;;;;;;10.30;7.43;;;;;;;16.17;100.00;101941.66;10305344;28;20034;-84
2022/06/10 23:02:37;;;;;;;12.57;8.07;;;;;;;16.29;100.00;101964.53;10306256;28;20488;-86
2022/06/10 23:07:39;;;;;;;12.57;7.20;;;;;;;16.28;100.00;101965.63;10292675;28;20034;-90
2022/06/10 23:12:39;;;;;;;14.15;6.85;;;;;;;16.23;100.00;101962.81;10258562;28;20475;-87
2022/06/10 23:17:45;;;;;;;14.85;7.47;;;;;;;16.23;100.00;101960.03;10281469;28;20031;-87
2022/06/10 23:22:45;;;;;;;10.32;6.70;;;;;;;16.19;100.00;101950.56;10258861;28;20046;-88
2022/06/10 23:27:46;;;;;;;13.27;7.47;;;;;;;16.20;100.00;101951.38;10265279;28;20146;-87
2022/06/10 23:32:54;;;;;;;13.75;7.40;;;;;;;15.93;100.00;101905.91;10288698;28;20042;-88